Lamartine, PA (16375)

4:53 AM EST on February 13, 2016 (GMT -0500)
Kennerdell | | Change Station
CLOSE
Current Station
Personal Weather Station
Location: Kennerdell, PA
Elevation: 925 ft
Nearby Weather Stations
Active Advisory: Wind Chill Advisory Active Notice: Public Information Statement

Elev 925 ft 41.27 °N, 79.81 °W | Updated 4 seconds ago

Partly Cloudy
Partly Cloudy
5.0 °F
Feels Like -5 °F
N
5.1
Wind Variable Wind from West
Gusts 26.6 mph

Today
High -- | Low -- °F
--% Chance of Precip.
Yesterday
High -- | Low -- °F
Precip. -- in
Pressure 30.09 in
Visibility 5.0 miles
Clouds Few 2400 ft
Scattered Clouds 3000 ft
Mostly Cloudy 3600 ft
Windchill -5 °F
Dew Point -0 °F
Humidity 79%
Rainfall 0.00 in
Snow Depth Not available.
7:16 AM 5:49 PM
Waxing Crescent, 29% visible
METAR KFKL 130935Z 28009G15KT 5SM FEW024 SCT030 BKN036 M15/M21 A3009 RMK AO1
Pressure 30.09 in
Visibility 5.0 miles
Clouds Few 2400 ft
Scattered Clouds 3000 ft
Mostly Cloudy 3600 ft
Windchill -5 °F
Dew Point -0 °F
Humidity 79%
Rainfall 0.00 in
Snow Depth Not available.
7:16 AM 5:49 PM
Waxing Crescent, 29% visible
METAR KFKL 130935Z 28009G15KT 5SM FEW024 SCT030 BKN036 M15/M21 A3009 RMK AO1

10-Day Weather Forecast

Almanac

Astronomy

Feb. 13, 2016 Rise Set
Actual Time
Civil Twilight
Nautical Twilight
Astronomical Twilight
Moon
Length of Visible Light
Length of Day
Tomorrow will be .
, % of the Moon is Illuminated

Today's Extremes

State Highs State Lows

Community

WunderPhotos

Upload Photos

1,892,536 photos uploaded!

WunderBlog® & News

Nearby

Air Quality

  Air Quality AQ Index Pollutant
Not available.

Snow Depth

Station Depth Elevation

Earthquake Activity

City Distance Mag. Time & Date
Minimum magnitude displayed is 2.5.

Coastal Water Temperatures

Place Temperature

Stations

Nearby Weather Stations

Station Location Temp. Windchill Dew Point Humidity Wind Precip. Elev Updated Type
                   

Watches & Warnings

Wind Chill Advisory
Issued: 1:08 AM EST Feb. 13, 2016 – National Weather Service

... Wind Chill Advisory remains in effect until 9 am EST Sunday...

* wind chill... as low as 15 below due to temperatures 4 below to
15 above zero... and winds west 10 to 20 mph with gusts up to
25 mph.

* Impacts... frost bite and hypothermia are possible if
precautions are not taken.